createdAt,value
2023-03-14T00:00:17.496Z,94273.09
2023-03-14T00:02:44.326Z,94248.09
2023-03-14T00:05:11.306Z,94231.72
2023-03-14T00:07:39.658Z,94213.91
2023-03-14T00:10:09.215Z,94198.63
2023-03-14T00:12:35.893Z,94184.50
2023-03-14T00:15:04.403Z,94180.69
2023-03-14T00:17:32.120Z,94174.72
2023-03-14T00:20:05.066Z,94169.25
2023-03-14T00:22:32.725Z,94199.06
2023-03-14T00:24:59.266Z,94208.22
2023-03-14T00:27:25.865Z,94196.69
2023-03-14T00:29:52.497Z,94196.09
2023-03-14T00:32:19.195Z,94202.06
2023-03-14T00:34:45.836Z,94201.56
2023-03-14T00:37:12.400Z,94220.31
2023-03-14T00:39:38.958Z,94228.00
2023-03-14T00:42:05.524Z,94233.22
2023-03-14T00:44:32.830Z,94236.31
2023-03-14T00:46:59.785Z,94244.38
2023-03-14T00:49:26.812Z,94238.75
2023-03-14T00:51:53.474Z,94249.69
2023-03-14T00:54:21.169Z,94263.16
2023-03-14T00:56:47.812Z,94271.41
2023-03-14T00:59:14.426Z,94269.00
2023-03-14T01:01:41.429Z,94259.75
2023-03-14T01:04:08.053Z,94261.88
2023-03-14T01:06:34.992Z,94257.16
2023-03-14T01:09:01.890Z,94251.06
2023-03-14T01:11:30.924Z,94248.13
2023-03-14T01:13:58.693Z,94229.97
2023-03-14T01:16:34.535Z,94223.84
2023-03-14T01:19:01.870Z,94223.09
2023-03-14T01:21:31.584Z,94214.56
2023-03-14T01:24:00.115Z,94228.41
2023-03-14T01:26:30.300Z,94217.69
2023-03-14T01:28:57.137Z,94210.81
2023-03-14T01:31:25.799Z,94212.88
2023-03-14T01:33:52.728Z,94203.50
2023-03-14T01:36:19.949Z,94212.09
2023-03-14T01:38:47.157Z,94202.19
2023-03-14T01:41:22.666Z,94190.84
2023-03-14T01:43:50.600Z,94185.91
2023-03-14T01:46:23.273Z,94171.63
2023-03-14T01:49:05.370Z,94163.84
2023-03-14T01:51:46.202Z,94163.94
2023-03-14T01:54:32.645Z,94167.00
2023-03-14T01:57:07.716Z,94171.81
2023-03-14T01:59:36.471Z,94174.50
2023-03-14T02:02:08.537Z,94171.25
2023-03-14T02:04:36.450Z,94172.66
2023-03-14T02:07:13.297Z,94176.34
2023-03-14T02:09:45.356Z,94170.47
2023-03-14T02:12:18.808Z,94163.94
2023-03-14T02:14:52.539Z,94154.19
2023-03-14T02:17:25.050Z,94134.56
2023-03-14T02:20:23.911Z,94135.94
2023-03-14T02:22:56.048Z,94135.13
2023-03-14T02:25:46.899Z,94145.28
2023-03-14T02:28:14.215Z,94141.56
2023-03-14T02:30:41.320Z,94133.78
2023-03-14T02:33:11.952Z,94129.47
2023-03-14T02:35:54.154Z,94136.16
2023-03-14T02:38:38.904Z,94140.28
2023-03-14T02:41:06.976Z,94121.84
2023-03-14T02:43:38.941Z,94134.91
2023-03-14T02:46:13.178Z,94127.84
2023-03-14T02:48:45.833Z,94109.06
2023-03-14T02:51:13.672Z,94102.44
2023-03-14T02:53:42.271Z,94114.38
2023-03-14T02:56:11.709Z,94116.38
2023-03-14T02:58:38.831Z,94107.78
2023-03-14T03:01:15.630Z,94110.97
2023-03-14T03:03:42.743Z,94098.25
2023-03-14T03:06:09.573Z,94087.03
2023-03-14T03:08:36.275Z,94095.69
2023-03-14T03:11:02.840Z,94106.06
2023-03-14T03:13:33.102Z,94101.81
2023-03-14T03:16:01.658Z,94098.19
2023-03-14T03:18:28.235Z,94089.16
2023-03-14T03:20:54.925Z,94077.69
2023-03-14T03:23:22.956Z,94087.41
2023-03-14T03:25:51.354Z,94080.53
2023-03-14T03:28:18.884Z,94073.84
2023-03-14T03:30:46.245Z,94074.47
2023-03-14T03:33:13.403Z,94071.28
2023-03-14T03:35:47.759Z,94072.69
2023-03-14T03:38:17.595Z,94065.53
2023-03-14T03:40:45.821Z,94066.03
2023-03-14T03:43:12.606Z,94066.22
2023-03-14T03:45:42.410Z,94059.53
2023-03-14T03:48:09.235Z,94063.25
2023-03-14T03:50:36.258Z,94058.63
2023-03-14T03:53:03.108Z,94054.16
2023-03-14T03:55:29.778Z,94047.56
2023-03-14T03:57:56.415Z,94055.94
2023-03-14T04:00:23.035Z,94054.22
2023-03-14T04:02:49.772Z,94056.69
2023-03-14T04:05:17.963Z,94044.66
2023-03-14T04:07:59.295Z,94047.56
2023-03-14T04:10:27.903Z,94050.22
2023-03-14T04:13:12.732Z,94053.34
2023-03-14T04:15:41.087Z,94062.69
2023-03-14T04:18:14.026Z,94058.38
2023-03-14T04:20:42.125Z,94045.72
2023-03-14T04:23:09.278Z,94036.03
2023-03-14T04:25:35.932Z,94039.56
2023-03-14T04:28:05.102Z,94035.31
2023-03-14T04:30:32.737Z,94025.16
2023-03-14T04:33:08.397Z,94012.72
2023-03-14T04:35:39.181Z,93998.78
2023-03-14T04:38:09.658Z,93996.88
2023-03-14T04:40:41.197Z,94004.47
2023-03-14T04:43:10.724Z,94002.84
2023-03-14T04:45:43.166Z,93992.00
2023-03-14T04:48:10.850Z,93996.38
2023-03-14T04:50:38.530Z,93975.63
2023-03-14T04:53:05.589Z,93976.25
2023-03-14T04:55:33.484Z,93964.13
2023-03-14T04:58:00.426Z,93968.88
2023-03-14T05:00:27.021Z,93960.84
2023-03-14T05:03:29.939Z,93949.47
2023-03-14T05:06:07.681Z,93951.25
2023-03-14T05:09:01.902Z,93946.72
2023-03-14T05:11:57.750Z,93950.44
2023-03-14T05:14:47.266Z,93946.56
2023-03-14T05:17:34.063Z,93945.28
2023-03-14T05:20:21.553Z,93945.66
2023-03-14T05:23:11.215Z,93929.16
2023-03-14T05:25:58.020Z,93917.63
2023-03-14T05:28:38.449Z,93921.28
2023-03-14T05:31:19.073Z,93915.03
2023-03-14T05:33:55.118Z,93919.38
2023-03-14T05:36:36.572Z,93909.16
2023-03-14T05:39:22.226Z,93903.16
2023-03-14T05:42:09.048Z,93896.38
2023-03-14T05:44:58.105Z,93896.13
2023-03-14T05:47:43.448Z,93896.00
2023-03-14T05:50:23.247Z,93895.09
2023-03-14T05:53:16.115Z,93892.97
2023-03-14T05:55:59.809Z,93890.91
2023-03-14T05:58:39.647Z,93887.03
2023-03-14T06:01:24.729Z,93891.06
2023-03-14T06:04:06.244Z,93886.88
2023-03-14T06:06:33.331Z,93892.38
2023-03-14T06:09:01.865Z,93889.69
2023-03-14T06:11:30.929Z,93889.75
2023-03-14T06:13:57.504Z,93896.66
2023-03-14T06:16:24.097Z,93894.56
2023-03-14T06:18:53.236Z,93874.34
2023-03-14T06:21:21.095Z,93878.69
2023-03-14T06:23:49.863Z,93871.13
2023-03-14T06:26:17.418Z,93877.38
2023-03-14T06:28:44.221Z,93880.00
2023-03-14T06:31:10.936Z,93884.59
2023-03-14T06:33:46.644Z,93880.38
2023-03-14T06:36:13.325Z,93872.28
2023-03-14T06:38:43.024Z,93867.91
2023-03-14T06:41:09.703Z,93873.94
2023-03-14T06:43:41.729Z,93881.63
2023-03-14T06:46:09.304Z,93873.34
2023-03-14T06:48:38.682Z,93876.31
2023-03-14T06:51:07.437Z,93872.22
2023-03-14T06:53:34.341Z,93868.44
2023-03-14T06:56:02.772Z,93866.06
2023-03-14T06:58:32.079Z,93864.50
2023-03-14T07:00:59.998Z,93866.69
2023-03-14T07:03:32.117Z,93864.28
2023-03-14T07:06:00.622Z,93866.13
2023-03-14T07:08:27.506Z,93858.53
2023-03-14T07:10:56.714Z,93856.31
2023-03-14T07:13:23.304Z,93871.19
2023-03-14T07:15:57.033Z,93865.41
2023-03-14T07:18:23.959Z,93857.28
2023-03-14T07:20:51.546Z,93868.97
2023-03-14T07:23:19.323Z,93873.78
2023-03-14T07:25:52.662Z,93879.56
2023-03-14T07:28:20.921Z,93894.94
2023-03-14T07:30:50.092Z,93893.75
2023-03-14T07:33:21.272Z,93903.41
2023-03-14T07:35:49.546Z,93905.25
2023-03-14T07:38:17.091Z,93911.09
2023-03-14T07:41:05.895Z,93911.38
2023-03-14T07:43:35.551Z,93915.72
2023-03-14T07:46:02.228Z,93907.38
2023-03-14T07:48:29.058Z,93912.41
2023-03-14T07:50:56.243Z,93907.22
2023-03-14T07:53:23.610Z,93916.13
2023-03-14T07:55:54.390Z,93919.81
2023-03-14T07:58:22.738Z,93911.72
2023-03-14T08:00:50.349Z,93919.28
2023-03-14T08:03:17.635Z,93919.47
2023-03-14T08:05:45.692Z,93924.75
2023-03-14T08:08:12.437Z,93924.09
2023-03-14T08:10:39.077Z,93938.94
2023-03-14T08:13:05.617Z,93947.97
2023-03-14T08:15:32.828Z,93938.59
2023-03-14T08:17:59.575Z,93951.69
2023-03-14T08:20:28.769Z,93959.31
2023-03-14T08:22:59.640Z,93965.00
2023-03-14T08:25:27.734Z,93955.41
2023-03-14T08:27:54.464Z,93951.81
2023-03-14T08:30:22.753Z,93957.53
2023-03-14T08:32:49.454Z,93945.75
2023-03-14T08:35:16.431Z,93950.66
2023-03-14T08:37:43.137Z,93953.09
2023-03-14T08:40:10.940Z,93950.00
2023-03-14T08:42:39.564Z,93951.03
2023-03-14T08:45:08.037Z,93949.75
2023-03-14T08:47:34.582Z,93959.47
2023-03-14T08:50:01.293Z,93950.72
2023-03-14T08:52:28.055Z,93949.69
2023-03-14T08:54:54.709Z,93956.00
2023-03-14T08:57:22.825Z,93957.88
2023-03-14T08:59:49.474Z,93957.31
2023-03-14T09:02:16.022Z,93961.81
2023-03-14T09:04:42.647Z,93974.16
2023-03-14T09:07:09.337Z,93971.84
2023-03-14T09:09:35.908Z,93974.03
2023-03-14T09:12:02.537Z,93972.84
2023-03-14T09:14:29.776Z,93975.63
2023-03-14T09:16:56.446Z,93967.66
2023-03-14T09:19:23.106Z,93983.81
2023-03-14T09:21:49.786Z,93984.00
2023-03-14T09:24:17.493Z,93989.13
2023-03-14T09:26:44.089Z,93994.22
2023-03-14T09:29:10.642Z,94000.22
2023-03-14T09:31:37.322Z,94003.41
2023-03-14T09:34:04.017Z,94003.13
2023-03-14T09:36:31.642Z,94008.13
2023-03-14T09:38:58.199Z,94009.00
2023-03-14T09:41:32.411Z,94012.41
2023-03-14T09:44:09.572Z,94003.75
2023-03-14T09:46:38.840Z,93999.47
2023-03-14T09:49:13.380Z,94006.75
2023-03-14T09:51:41.456Z,94003.56
2023-03-14T09:54:38.201Z,94004.31
2023-03-14T09:57:07.224Z,94006.66
2023-03-14T09:59:36.168Z,93992.84
2023-03-14T10:02:12.514Z,94005.41
2023-03-14T10:04:42.475Z,93993.78
2023-03-14T10:07:15.900Z,93996.56
2023-03-14T10:09:48.794Z,93996.00
2023-03-14T10:12:15.361Z,93992.81
2023-03-14T10:14:51.280Z,93989.13
2023-03-14T10:17:20.099Z,93987.44
2023-03-14T10:19:58.884Z,93994.59
2023-03-14T10:22:30.305Z,93987.91
2023-03-14T10:25:02.918Z,93987.03
2023-03-14T10:27:35.246Z,93991.31
2023-03-14T10:30:08.281Z,93992.53
2023-03-14T10:32:36.631Z,93995.72
2023-03-14T10:35:21.467Z,93990.13
2023-03-14T10:37:57.665Z,93993.56
2023-03-14T10:40:31.249Z,94001.94
2023-03-14T10:43:00.115Z,94005.44
2023-03-14T10:45:30.436Z,94002.22
2023-03-14T10:48:00.262Z,94008.09
2023-03-14T10:50:29.332Z,94011.88
2023-03-14T10:53:02.383Z,94033.06
2023-03-14T10:55:39.659Z,94033.91
2023-03-14T10:58:06.388Z,94031.84
2023-03-14T11:00:34.203Z,94041.59
2023-03-14T11:03:06.596Z,94049.03
2023-03-14T11:05:43.552Z,94058.78
2023-03-14T11:08:41.400Z,94049.13
2023-03-14T11:11:22.787Z,94062.34
2023-03-14T11:13:58.628Z,94067.72
2023-03-14T11:16:44.389Z,94070.75
2023-03-14T11:19:35.522Z,94086.66
2023-03-14T11:22:14.498Z,94076.09
2023-03-14T11:25:12.585Z,94087.47
2023-03-14T11:27:45.347Z,94083.28
2023-03-14T11:30:14.988Z,94093.13
2023-03-14T11:33:18.611Z,94088.94
2023-03-14T11:35:56.475Z,94087.53
2023-03-14T11:38:50.725Z,94089.19
2023-03-14T11:41:40.704Z,94086.66
2023-03-14T11:44:28.390Z,94095.41
2023-03-14T11:47:03.945Z,94099.66
2023-03-14T11:49:39.916Z,94097.16
2023-03-14T11:52:15.418Z,94095.31
2023-03-14T11:54:56.324Z,94092.66
2023-03-14T11:57:23.787Z,94098.34
2023-03-14T12:00:22.798Z,94107.19
2023-03-14T12:03:15.343Z,94108.13
2023-03-14T12:05:49.930Z,94116.38
2023-03-14T12:08:41.450Z,94122.53
2023-03-14T12:11:18.294Z,94131.28
2023-03-14T12:13:50.190Z,94143.41
2023-03-14T12:16:41.284Z,94159.03
2023-03-14T12:19:20.443Z,94229.78
2023-03-14T12:21:55.648Z,94241.38
2023-03-14T12:24:28.125Z,94243.19
2023-03-14T12:26:57.482Z,94236.63
2023-03-14T12:29:24.920Z,94240.78
2023-03-14T12:32:22.752Z,94251.06
2023-03-14T12:34:49.398Z,94254.06
2023-03-14T12:37:36.893Z,94270.31
2023-03-14T12:40:10.560Z,94282.94
2023-03-14T12:42:46.066Z,94286.06
2023-03-14T12:45:15.450Z,94278.91
2023-03-14T12:47:50.824Z,94298.63
2023-03-14T12:50:28.105Z,94309.69
2023-03-14T12:53:20.584Z,94311.09
2023-03-14T12:55:59.883Z,94311.50
2023-03-14T12:58:26.476Z,94332.59
2023-03-14T13:01:17.413Z,94340.28
2023-03-14T13:03:51.801Z,94342.28
2023-03-14T13:06:55.490Z,94347.16
2023-03-14T13:09:32.538Z,94356.91
2023-03-14T13:12:10.016Z,94370.28
2023-03-14T13:14:41.935Z,94373.69
2023-03-14T13:17:33.418Z,94398.28
2023-03-14T13:20:06.328Z,94402.69
2023-03-14T13:22:37.367Z,94416.78
2023-03-14T13:25:07.518Z,94419.38
2023-03-14T13:27:35.722Z,94435.50
2023-03-14T13:30:20.650Z,94434.94
2023-03-14T13:32:48.754Z,94455.63
2023-03-14T13:35:28.551Z,94450.69
2023-03-14T13:38:11.024Z,94458.94
2023-03-14T13:40:38.052Z,94470.50
2023-03-14T13:43:13.489Z,94481.00
2023-03-14T13:45:51.682Z,94488.81
2023-03-14T13:48:19.382Z,94493.44
2023-03-14T13:51:17.445Z,94495.69
2023-03-14T13:53:46.285Z,94507.75
2023-03-14T13:56:13.718Z,94518.59
2023-03-14T13:58:40.811Z,94513.91
2023-03-14T14:01:18.112Z,94524.03
2023-03-14T14:03:49.605Z,94541.41
2023-03-14T14:06:28.638Z,94549.56
2023-03-14T14:09:02.003Z,94558.09
2023-03-14T14:11:47.057Z,94565.81
2023-03-14T14:14:40.946Z,94561.09
2023-03-14T14:17:14.752Z,94566.81
2023-03-14T14:19:43.037Z,94581.28
2023-03-14T14:22:11.337Z,94582.28
2023-03-14T14:24:39.409Z,94599.16
2023-03-14T14:27:11.599Z,94603.47
2023-03-14T14:29:39.193Z,94615.31
2023-03-14T14:32:08.754Z,94618.88
2023-03-14T14:34:58.568Z,94620.34
2023-03-14T14:37:31.511Z,94625.53
2023-03-14T14:40:01.288Z,94621.72
2023-03-14T14:42:32.527Z,94640.06
2023-03-14T14:45:00.766Z,94651.94
2023-03-14T14:47:29.668Z,94647.03
2023-03-14T14:50:00.799Z,94660.50
2023-03-14T14:52:45.096Z,94649.97
2023-03-14T14:55:17.381Z,94673.16
2023-03-14T14:57:53.277Z,94672.84
2023-03-14T15:00:26.362Z,94671.88
2023-03-14T15:02:56.144Z,94676.56
2023-03-14T15:05:25.078Z,94682.38
2023-03-14T15:07:52.103Z,94684.78
2023-03-14T15:10:24.616Z,94692.09
2023-03-14T15:12:51.410Z,94690.97
2023-03-14T15:15:18.867Z,94697.16
2023-03-14T15:17:45.428Z,94691.66
2023-03-14T15:20:14.991Z,94686.69
2023-03-14T15:22:42.513Z,94695.13
2023-03-14T15:25:18.587Z,94695.00
2023-03-14T15:27:49.126Z,94689.63
2023-03-14T15:30:16.409Z,94688.63
2023-03-14T15:32:43.020Z,94685.13
2023-03-14T15:35:10.377Z,94686.09
2023-03-14T15:37:37.049Z,94691.03
2023-03-14T15:40:12.697Z,94683.44
2023-03-14T15:42:39.312Z,94690.13
2023-03-14T15:45:06.432Z,94672.47
2023-03-14T15:47:33.249Z,94671.22
2023-03-14T15:50:00.126Z,94698.38
2023-03-14T15:52:26.862Z,94691.41
2023-03-14T15:54:53.419Z,94694.59
2023-03-14T15:57:19.950Z,94687.47
2023-03-14T15:59:46.654Z,94693.28
2023-03-14T16:02:13.207Z,94691.75
2023-03-14T16:04:39.906Z,94691.22
2023-03-14T16:07:07.195Z,94688.75
2023-03-14T16:09:33.765Z,94690.25
2023-03-14T16:12:00.453Z,94693.63
2023-03-14T16:14:27.014Z,94690.50
2023-03-14T16:16:55.779Z,94687.66
2023-03-14T16:19:22.568Z,94693.19
2023-03-14T16:21:51.739Z,94704.81
2023-03-14T16:24:19.076Z,94713.09
2023-03-14T16:26:46.366Z,94707.59
2023-03-14T16:29:13.258Z,94714.00
2023-03-14T16:31:43.095Z,94713.31
2023-03-14T16:34:10.265Z,94713.56
2023-03-14T16:36:36.858Z,94714.00
2023-03-14T16:39:04.564Z,94707.25
2023-03-14T16:41:31.697Z,94716.19
2023-03-14T16:44:01.891Z,94721.56
2023-03-14T16:46:30.346Z,94716.94
2023-03-14T16:48:57.684Z,94725.16
2023-03-14T16:51:24.769Z,94724.53
2023-03-14T16:53:51.585Z,94732.44
2023-03-14T16:56:18.391Z,94734.78
2023-03-14T16:58:45.394Z,94737.66
2023-03-14T17:01:14.832Z,94746.22
2023-03-14T17:03:43.629Z,94747.19
2023-03-14T17:06:16.221Z,94750.69
2023-03-14T17:08:42.889Z,94755.59
2023-03-14T17:11:09.976Z,94758.03
2023-03-14T17:13:37.061Z,94762.47
2023-03-14T17:16:04.476Z,94763.09
2023-03-14T17:18:32.053Z,94777.28
2023-03-14T17:20:59.332Z,94784.25
2023-03-14T17:23:27.466Z,94787.38
2023-03-14T17:25:54.042Z,94808.94
2023-03-14T17:28:22.404Z,94829.09
2023-03-14T17:30:49.248Z,94846.81
2023-03-14T17:33:16.048Z,94865.00
2023-03-14T17:35:44.086Z,94881.09
2023-03-14T17:38:10.728Z,94887.97
2023-03-14T17:40:37.330Z,94891.97
2023-03-14T17:43:03.901Z,94872.53
2023-03-14T17:45:30.475Z,94862.25
2023-03-14T17:47:57.152Z,94872.00
2023-03-14T17:50:24.032Z,94875.66
2023-03-14T17:52:50.644Z,94882.13
2023-03-14T17:55:17.247Z,94894.34
2023-03-14T17:57:44.917Z,94897.44
2023-03-14T18:00:13.048Z,94897.16
2023-03-14T18:02:41.681Z,94898.88
2023-03-14T18:05:09.531Z,94899.97
2023-03-14T18:07:37.909Z,94915.00
2023-03-14T18:10:06.733Z,94919.59
2023-03-14T18:12:33.333Z,94910.78
2023-03-14T18:14:59.873Z,94926.44
2023-03-14T18:17:26.548Z,94936.97
2023-03-14T18:19:54.365Z,94947.81
2023-03-14T18:22:20.960Z,94947.50
2023-03-14T18:24:47.803Z,94943.03
2023-03-14T18:27:15.879Z,94948.78
2023-03-14T18:29:42.794Z,94956.38
2023-03-14T18:32:10.621Z,94956.41
2023-03-14T18:34:37.538Z,94949.69
2023-03-14T18:37:04.114Z,94958.56
2023-03-14T18:39:31.310Z,94965.53
2023-03-14T18:41:57.858Z,94968.31
2023-03-14T18:44:24.436Z,94972.91
2023-03-14T18:46:51.111Z,94970.34
2023-03-14T18:49:18.038Z,94975.19
2023-03-14T18:51:45.122Z,94975.84
2023-03-14T18:54:11.726Z,94972.78
2023-03-14T18:56:41.357Z,94973.06
2023-03-14T18:59:09.127Z,94969.09
2023-03-14T19:01:36.314Z,94968.72
2023-03-14T19:04:03.544Z,94975.41
2023-03-14T19:06:34.030Z,94980.75
2023-03-14T19:09:01.977Z,94981.03
2023-03-14T19:11:28.800Z,94975.50
2023-03-14T19:13:56.706Z,94967.72
2023-03-14T19:16:24.719Z,94981.44
2023-03-14T19:18:52.303Z,94982.78
2023-03-14T19:21:36.264Z,94976.66
2023-03-14T19:24:05.443Z,94986.50
2023-03-14T19:26:32.715Z,94995.44
2023-03-14T19:28:59.677Z,94991.75
2023-03-14T19:31:26.893Z,94998.09
2023-03-14T19:33:54.089Z,95001.81
2023-03-14T19:36:22.566Z,95000.50
2023-03-14T19:38:49.747Z,95001.78
2023-03-14T19:41:16.458Z,95004.88
2023-03-14T19:43:43.027Z,95019.81
2023-03-14T19:46:09.718Z,95020.00
2023-03-14T19:48:37.450Z,95018.78
2023-03-14T19:51:04.439Z,95022.09
2023-03-14T19:53:31.426Z,95037.88
2023-03-14T19:55:58.219Z,95023.22
2023-03-14T19:58:24.940Z,95027.63
2023-03-14T20:00:51.674Z,95023.94
2023-03-14T20:03:18.286Z,95025.34
2023-03-14T20:05:44.819Z,95021.19
2023-03-14T20:08:11.930Z,95019.63
2023-03-14T20:10:38.508Z,95019.84
2023-03-14T20:13:15.503Z,95023.94
2023-03-14T20:15:47.544Z,95013.44
2023-03-14T20:18:14.256Z,95020.88
2023-03-14T20:20:41.736Z,95017.28
2023-03-14T20:23:09.337Z,95010.25
2023-03-14T20:25:37.577Z,95013.06
2023-03-14T20:28:05.085Z,95011.31
2023-03-14T20:30:32.136Z,95013.72
2023-03-14T20:32:58.802Z,95011.28
2023-03-14T20:35:25.378Z,95015.72
2023-03-14T20:37:58.158Z,95014.06
2023-03-14T20:40:28.816Z,95009.59
2023-03-14T20:42:56.056Z,94998.88
2023-03-14T20:45:22.676Z,95017.47
2023-03-14T20:47:50.158Z,95026.66
2023-03-14T20:50:17.252Z,95028.22
2023-03-14T20:52:45.128Z,95026.84
2023-03-14T20:55:11.832Z,95038.69
2023-03-14T20:57:38.493Z,95052.66
2023-03-14T21:00:08.377Z,95050.75
2023-03-14T21:02:35.177Z,95048.78
2023-03-14T21:05:02.509Z,95058.72
2023-03-14T21:07:34.362Z,95063.66
2023-03-14T21:10:01.038Z,95063.22
2023-03-14T21:12:27.872Z,95070.81
2023-03-14T21:14:54.497Z,95069.41
2023-03-14T21:17:21.075Z,95066.22
2023-03-14T21:19:47.783Z,95066.97
2023-03-14T21:22:18.936Z,95077.03
2023-03-14T21:24:46.122Z,95081.59
2023-03-14T21:27:12.771Z,95094.69
2023-03-14T21:29:39.650Z,95098.84
2023-03-14T21:32:06.261Z,95111.34
2023-03-14T21:34:33.282Z,95111.28
2023-03-14T21:36:59.875Z,95123.38
2023-03-14T21:39:26.424Z,95119.09
2023-03-14T21:41:53.297Z,95119.13
2023-03-14T21:44:20.497Z,95113.19
2023-03-14T21:46:47.841Z,95113.03
2023-03-14T21:49:15.633Z,95111.84
2023-03-14T21:51:45.857Z,95112.09
2023-03-14T21:54:15.303Z,95105.59
2023-03-14T21:56:43.390Z,95102.28
2023-03-14T21:59:11.110Z,95099.72
2023-03-14T22:01:37.809Z,95106.88
2023-03-14T22:04:04.410Z,95115.94
2023-03-14T22:06:31.036Z,95119.19
2023-03-14T22:08:57.731Z,95121.47
2023-03-14T22:11:24.948Z,95107.22
2023-03-14T22:13:51.520Z,95114.22
2023-03-14T22:16:18.072Z,95124.25
2023-03-14T22:18:45.472Z,95128.78
2023-03-14T22:21:12.746Z,95135.31
2023-03-14T22:23:39.306Z,95126.75
2023-03-14T22:26:05.888Z,95133.38
2023-03-14T22:28:32.455Z,95136.16
2023-03-14T22:31:00.426Z,95137.53
2023-03-14T22:33:28.840Z,95142.97
2023-03-14T22:35:55.431Z,95154.22
2023-03-14T22:38:22.426Z,95157.41
2023-03-14T22:40:49.081Z,95153.78
2023-03-14T22:43:15.743Z,95155.06
2023-03-14T22:45:42.407Z,95160.06
2023-03-14T22:48:08.985Z,95158.75
2023-03-14T22:50:38.650Z,95159.56
2023-03-14T22:53:05.217Z,95167.09
2023-03-14T22:55:31.783Z,95162.50
2023-03-14T22:57:58.953Z,95165.00
2023-03-14T23:00:26.939Z,95165.66
2023-03-14T23:02:53.856Z,95169.22
2023-03-14T23:05:20.636Z,95175.53
2023-03-14T23:07:47.223Z,95196.44
2023-03-14T23:10:13.823Z,95199.38
2023-03-14T23:12:40.400Z,95201.47
2023-03-14T23:15:08.359Z,95203.41
2023-03-14T23:17:35.196Z,95220.16
2023-03-14T23:20:01.863Z,95256.69
2023-03-14T23:22:32.668Z,95284.03
2023-03-14T23:25:00.391Z,95295.03
2023-03-14T23:27:27.633Z,95293.84
2023-03-14T23:29:54.181Z,95304.91
2023-03-14T23:32:20.866Z,95301.09
2023-03-14T23:34:47.500Z,95309.97
2023-03-14T23:37:14.307Z,95308.50
2023-03-14T23:39:43.955Z,95317.63
2023-03-14T23:42:10.556Z,95324.00
2023-03-14T23:44:37.283Z,95328.19
2023-03-14T23:47:03.911Z,95333.13
2023-03-14T23:49:30.526Z,95329.38
2023-03-14T23:51:57.178Z,95334.28
2023-03-14T23:54:23.839Z,95338.84
2023-03-14T23:56:50.615Z,95331.19
2023-03-14T23:59:17.270Z,95330.63
